Weather History for Bellefontaine, OH

Change the Weather History Date:

Friday, February 15, 2013

  Actual Average (KDAY) Record (KDAY)
Temperature  
Mean Temperature 28 °F 31 °F  
Max Temperature 33 °F 39 °F 69 °F (1954)
Min Temperature 23 °F 23 °F -5 °F (2007)
Degree Days  
Heating Degree Days 37 34  
Month to date heating degree days 533  
Since 1 July heating degree days 3856  
Cooling Degree Days 0 0  
Month to date cooling degree days 0  
Year to date cooling degree days 0  
Moisture  
Dew Point 27 °F    
Average Humidity 89    
Maximum Humidity 100    
Minimum Humidity 69    
Precipitation  
Precipitation 0.00 in 0.08 in 1.45 in (1990)
Month to date precipitation 1.21  
Year to date precipitation 3.92  
Snow  
Snow 0.00 in 0.20 in 4.30 in (2003)
Month to date snowfall 3.3  
Since 1 July snowfall 16.7  
Snow Depth -    
Sea Level Pressure  
Sea Level Pressure 30.01 in    
Wind  
Wind Speed 7 mph (West)    
Max Wind Speed 16 mph    
Max Gust Speed 22 mph    
Visibility 8 miles    
Events      
T = Trace of Precipitation, MM = Missing Value Source: NWS Daily Summary

Daily Weather History Graph

Daily Weather History Graph

Search for Another Location

Airport:

Trip Planner

Search our weather history database for the weather conditions in past years. The results will help you decide how hot, cold, wet, or windy it might be!

Date:

Astronomy

Feb. 15, 2013 Rise Set
Actual Time 7:28 AM EST 6:10 PM EST
Civil Twilight 7:00 AM EST 6:38 PM EST
Nautical Twilight 6:28 AM EST 7:10 PM EST
Astronomical Twilight 5:57 AM EST 7:42 PM EST
Moon 10:02 AM EST (2/15) No Moon Set
Length of Visible Light 11h 38m
Length of Day
10h 42m
Waxing Crescent, 30% of the Moon is Illuminated
Feb 15
Waxing Crescent
Feb 17
First Quarter
Feb 25
Full
Mar 4
Last Quarter
Mar 11
New

Hourly Weather History & Observations

Time (EST) Temp. Windchill Dew Point Humidity Pressure Visibility Wind Dir Wind Speed Gust Speed Precip Events Conditions
12:15 AM 33.8 °F 26.4 °F 28.4 °F 81% 29.91 in 10.0 mi WSW 9.2 mph - 0.00 in   Partly Cloudy
12:35 AM 33.8 °F 26.4 °F 28.4 °F 81% 29.92 in 10.0 mi WSW 9.2 mph - 0.00 in   Scattered Clouds
12:55 AM 33.8 °F 24.8 °F 28.4 °F 81% 29.92 in 10.0 mi WSW 12.7 mph - 0.00 in   Mostly Cloudy
1:15 AM 32.0 °F 23.6 °F 28.4 °F 87% 29.91 in 10.0 mi West 10.4 mph - 0.00 in   Scattered Clouds
1:35 AM 32.0 °F 24.2 °F 28.4 °F 87% 29.91 in 10.0 mi West 9.2 mph - 0.00 in   Partly Cloudy
1:55 AM 32.0 °F 24.8 °F 30.2 °F 93% 29.92 in 10.0 mi WSW 8.1 mph - 0.00 in   Mostly Cloudy
2:15 AM 32.0 °F 24.2 °F 28.4 °F 87% 29.92 in 10.0 mi WSW 9.2 mph - 0.00 in   Partly Cloudy
2:35 AM 32.0 °F 24.8 °F 28.4 °F 87% 29.93 in 10.0 mi West 8.1 mph - 0.00 in   Clear
2:55 AM 32.0 °F 26.4 °F 28.4 °F 87% 29.93 in 10.0 mi West 5.8 mph - 0.00 in   Partly Cloudy
3:15 AM 30.2 °F 24.3 °F 28.4 °F 93% 29.93 in 10.0 mi West 5.8 mph - 0.00 in   Clear
3:35 AM 30.2 °F 25.4 °F 28.4 °F 93% 29.93 in 10.0 mi WSW 4.6 mph - 0.00 in   Clear
3:55 AM 30.2 °F 24.3 °F 28.4 °F 93% 29.94 in 10.0 mi WSW 5.8 mph - 0.00 in   Clear
4:15 AM 30.2 °F 25.4 °F 28.4 °F 93% 29.94 in 10.0 mi WSW 4.6 mph - 0.00 in   Clear
4:35 AM 30.2 °F 26.7 °F 28.4 °F 93% 29.94 in 10.0 mi WSW 3.5 mph - 0.00 in   Clear
4:55 AM 30.2 °F 26.7 °F 30.2 °F 100% 29.95 in 10.0 mi WSW 3.5 mph - 0.00 in   Clear
5:15 AM 30.2 °F 24.3 °F 30.2 °F 100% 29.95 in 10.0 mi WSW 5.8 mph - 0.00 in   Partly Cloudy
5:35 AM 32.0 °F 26.4 °F 30.2 °F 93% 29.96 in 10.0 mi SW 5.8 mph - 0.00 in   Partly Cloudy
5:55 AM 30.2 °F 25.4 °F 30.2 °F 100% 29.96 in 10.0 mi SW 4.6 mph - 0.00 in   Partly Cloudy
6:15 AM 30.2 °F 26.7 °F 28.4 °F 93% 29.97 in 10.0 mi WSW 3.5 mph - 0.00 in   Partly Cloudy
6:35 AM 30.2 °F 26.7 °F 30.2 °F 100% 29.98 in 10.0 mi SSW 3.5 mph - 0.00 in   Mostly Cloudy
6:55 AM 30.2 °F 26.7 °F 30.2 °F 100% 29.98 in 10.0 mi SW 3.5 mph - 0.00 in   Overcast
7:15 AM 30.2 °F 26.7 °F 28.4 °F 93% 29.98 in 10.0 mi West 3.5 mph - 0.00 in   Mostly Cloudy
7:35 AM 30.2 °F 26.7 °F 28.4 °F 93% 29.98 in 10.0 mi West 3.5 mph - 0.00 in   Mostly Cloudy
7:55 AM 30.2 °F 26.7 °F 28.4 °F 93% 29.99 in 10.0 mi West 3.5 mph - 0.00 in   Overcast
8:15 AM 32.0 °F - 28.4 °F 87% 29.99 in 10.0 mi Calm Calm - 0.00 in   Mostly Cloudy
8:35 AM 32.0 °F 28.7 °F 28.4 °F 87% 30.00 in 10.0 mi WSW 3.5 mph - 0.00 in   Mostly Cloudy
8:55 AM 32.0 °F 27.5 °F 28.4 °F 87% 30.01 in 10.0 mi WSW 4.6 mph - 0.00 in   Mostly Cloudy
9:15 AM 32.0 °F 26.4 °F 30.2 °F 93% 30.01 in 10.0 mi WSW 5.8 mph - 0.00 in   Scattered Clouds
9:35 AM 32.0 °F 26.4 °F 30.2 °F 93% 30.02 in 9.0 mi WSW 5.8 mph - 0.00 in   Partly Cloudy
9:55 AM 32.0 °F 27.5 °F 28.4 °F 87% 30.02 in 7.0 mi West 4.6 mph - 0.00 in   Partly Cloudy
10:15 AM 32.0 °F 27.5 °F 28.4 °F 87% 30.02 in 9.0 mi West 4.6 mph - 0.00 in   Scattered Clouds
10:35 AM 32.0 °F 25.6 °F 26.6 °F 80% 30.02 in 8.0 mi WNW 6.9 mph - 0.00 in   Mostly Cloudy
10:55 AM 32.0 °F 25.6 °F 26.6 °F 80% 30.02 in 9.0 mi WNW 6.9 mph - 0.00 in   Mostly Cloudy
11:15 AM 32.0 °F 26.4 °F 28.4 °F 87% 30.02 in 7.0 mi WNW 5.8 mph - 0.00 in   Mostly Cloudy
11:35 AM 32.0 °F 27.5 °F 28.4 °F 87% 30.02 in 6.0 mi West 4.6 mph - 0.00 in   Mostly Cloudy
11:55 AM 32.0 °F 27.5 °F 28.4 °F 87% 30.02 in 2.5 mi West 4.6 mph - 0.00 in   Scattered Clouds
12:15 PM 30.2 °F 26.7 °F 28.4 °F 93% 30.02 in 1.5 mi West 3.5 mph - 0.00 in   Clear
12:55 PM 32.0 °F 28.7 °F 28.4 °F 87% 30.01 in 10.0 mi WSW 3.5 mph - 0.00 in   Scattered Clouds
1:15 PM 32.0 °F 28.7 °F 28.4 °F 87% 30.00 in 10.0 mi West 3.5 mph - 0.00 in   Mostly Cloudy
1:35 PM 32.0 °F 27.5 °F 30.2 °F 93% 30.00 in 2.0 mi WSW 4.6 mph - 0.00 in   Scattered Clouds
1:55 PM 32.0 °F 25.6 °F 30.2 °F 93% 30.00 in 1.5 mi West 6.9 mph - 0.00 in   Clear
2:15 PM 32.0 °F 27.5 °F 30.2 °F 93% 30.00 in 1.0 mi NW 4.6 mph - 0.00 in   Overcast
2:35 PM 32.0 °F 26.4 °F 30.2 °F 93% 30.01 in 1.0 mi WNW 5.8 mph - 0.00 in   Overcast
2:55 PM 32.0 °F 26.4 °F 32.0 °F 100% 30.01 in 3.0 mi West 5.8 mph - 0.00 in   Scattered Clouds
3:15 PM 32.0 °F 26.4 °F 30.2 °F 93% 30.00 in 5.0 mi West 5.8 mph - 0.00 in   Scattered Clouds
3:35 PM 32.0 °F 24.8 °F 30.2 °F 93% 30.01 in 9.0 mi WNW 8.1 mph - 0.00 in   Mostly Cloudy
3:55 PM 32.0 °F 21.6 °F 30.2 °F 93% 30.01 in 3.0 mi NNW 15.0 mph - 0.00 in   Overcast
4:15 PM 30.2 °F 18.9 °F 30.2 °F 100% 30.02 in 7.0 mi NNW 16.1 mph 20.7 mph 0.00 in   Overcast
4:35 PM 30.2 °F 18.9 °F 28.4 °F 93% 30.04 in 1.0 mi NNW 16.1 mph 21.9 mph 0.00 in   Overcast
4:55 PM 28.4 °F 19.1 °F 28.4 °F 100% 30.04 in 2.0 mi NNW 10.4 mph 18.4 mph 0.00 in   Mostly Cloudy
5:15 PM 28.4 °F 17.5 °F 26.6 °F 93% 30.05 in 10.0 mi NNW 13.8 mph - 0.00 in   Mostly Cloudy
5:35 PM 28.4 °F 18.0 °F 26.6 °F 93% 30.05 in 10.0 mi NNW 12.7 mph - 0.00 in   Overcast
5:55 PM 30.2 °F 23.4 °F 24.8 °F 80% 30.06 in 10.0 mi NW 6.9 mph - 0.00 in   Overcast
6:15 PM 28.4 °F 19.7 °F 24.8 °F 86% 30.05 in 10.0 mi NNW 9.2 mph - 0.00 in   Mostly Cloudy
6:35 PM 26.6 °F 21.2 °F 23.0 °F 86% 30.06 in 10.0 mi NW 4.6 mph - 0.00 in   Partly Cloudy
6:55 PM 26.6 °F 21.2 °F 24.8 °F 93% 30.06 in 10.0 mi WNW 4.6 mph - 0.00 in   Clear
7:15 PM 26.6 °F - 24.8 °F 93% 30.07 in 10.0 mi Calm Calm - 0.00 in   Clear
7:35 PM 26.6 °F 22.6 °F 26.6 °F 100% 30.07 in 10.0 mi West 3.5 mph - 0.00 in   Mostly Cloudy
7:55 PM 28.4 °F 24.6 °F 26.6 °F 93% 30.08 in 10.0 mi West 3.5 mph - 0.00 in   Overcast
8:15 PM 28.4 °F 20.4 °F 23.0 °F 80% 30.08 in 10.0 mi WNW 8.1 mph - 0.00 in   Overcast
8:35 PM 28.4 °F 21.2 °F 23.0 °F 80% 30.08 in 10.0 mi West 6.9 mph - 0.00 in   Overcast
8:55 PM 28.4 °F 20.4 °F 23.0 °F 80% 30.08 in 10.0 mi WNW 8.1 mph - 0.00 in   Overcast
9:15 PM 28.4 °F 19.1 °F 21.2 °F 74% 30.08 in 10.0 mi WNW 10.4 mph 16.1 mph 0.00 in   Mostly Cloudy
9:35 PM 26.6 °F 18.2 °F 19.4 °F 74% 30.08 in 10.0 mi WNW 8.1 mph - 0.00 in   Scattered Clouds
9:55 PM 26.6 °F 20.0 °F 17.6 °F 69% 30.09 in 10.0 mi WNW 5.8 mph - 0.00 in   Clear
10:15 PM 26.6 °F 18.2 °F 17.6 °F 69% 30.09 in 10.0 mi WNW 8.1 mph - 0.00 in   Clear
10:35 PM 24.8 °F 15.3 °F 17.6 °F 74% 30.09 in 10.0 mi NW 9.2 mph - 0.00 in   Clear
10:55 PM 24.8 °F 16.1 °F 17.6 °F 74% 30.09 in 10.0 mi NW 8.1 mph - 0.00 in   Clear
11:15 PM 23.0 °F 13.9 °F 17.6 °F 80% 30.09 in 10.0 mi NW 8.1 mph - 0.00 in   Clear
11:35 PM 23.0 °F 14.7 °F 17.6 °F 80% 30.08 in 10.0 mi NW 6.9 mph - 0.00 in   Clear
11:55 PM 23.0 °F 15.8 °F 17.6 °F 80% 30.08 in 10.0 mi NW 5.8 mph - 0.00 in   Clear